createdAt,value
2022-11-24T00:00:20.474Z,315
2022-11-24T00:05:17.542Z,338
2022-11-24T00:10:20.570Z,315
2022-11-24T00:15:20.514Z,338
2022-11-24T00:20:20.527Z,338
2022-11-24T00:25:20.478Z,338
2022-11-24T00:30:20.415Z,338
2022-11-24T00:35:20.624Z,338
2022-11-24T00:40:20.539Z,338
2022-11-24T00:45:20.643Z,338
2022-11-24T00:50:20.487Z,338
2022-11-24T00:55:17.486Z,315
2022-11-24T01:00:17.513Z,315
2022-11-24T01:05:20.575Z,315
2022-11-24T01:10:20.563Z,338
2022-11-24T01:15:18.523Z,315
2022-11-24T01:20:18.587Z,315
2022-11-24T01:25:18.681Z,315
2022-11-24T01:30:18.506Z,315
2022-11-24T01:35:15.560Z,338
2022-11-24T01:40:15.548Z,338
2022-11-24T01:45:18.654Z,338
2022-11-24T01:50:18.666Z,315
2022-11-24T01:55:18.695Z,338
2022-11-24T02:00:18.680Z,315
2022-11-24T02:05:18.670Z,315
2022-11-24T02:10:18.863Z,338
2022-11-24T02:20:18.629Z,338
2022-11-24T02:25:18.777Z,315
2022-11-24T02:30:15.680Z,338
2022-11-24T02:35:15.615Z,338
2022-11-24T02:40:18.720Z,315
2022-11-24T03:05:18.815Z,315
2022-11-24T13:25:19.378Z,0
2022-11-24T13:30:16.297Z,0
2022-11-24T13:35:19.448Z,0
2022-11-24T13:40:19.483Z,0
2022-11-24T13:45:19.463Z,338
2022-11-24T14:30:19.493Z,315
2022-11-24T14:35:19.601Z,315
2022-11-24T14:40:19.557Z,315
2022-11-24T14:45:19.632Z,292
2022-11-24T14:50:19.756Z,292
2022-11-24T14:55:23.177Z,315
2022-11-24T15:00:19.668Z,292
2022-11-24T15:05:19.623Z,315
2022-11-24T15:30:19.593Z,292
2022-11-24T15:40:19.720Z,135
2022-11-24T15:45:19.687Z,248
2022-11-24T15:50:19.831Z,158
2022-11-24T15:55:19.707Z,270
2022-11-24T16:00:19.699Z,225
2022-11-24T16:05:19.781Z,202
2022-11-24T16:10:16.633Z,158
2022-11-24T16:15:16.856Z,158
2022-11-24T16:20:19.746Z,248
2022-11-24T16:25:19.833Z,158
2022-11-24T16:30:19.718Z,248
2022-11-24T16:35:19.846Z,180
2022-11-24T16:45:19.862Z,248
2022-11-24T16:50:19.851Z,158
2022-11-24T16:55:19.839Z,202
2022-11-24T17:00:17.009Z,158
2022-11-24T17:05:16.774Z,158
2022-11-24T17:10:20.302Z,158
2022-11-24T17:15:39.420Z,202
2022-11-24T17:20:19.938Z,158
2022-11-24T17:25:19.947Z,158
2022-11-24T17:30:20.024Z,158
2022-11-24T17:35:19.986Z,158
2022-11-24T17:40:28.525Z,158
2022-11-24T17:45:20.102Z,158
2022-11-24T17:50:24.059Z,158
2022-11-24T17:55:16.921Z,158
2022-11-24T18:00:17.083Z,158
2022-11-24T18:05:20.009Z,225
2022-11-24T18:10:20.108Z,202
2022-11-24T18:15:19.959Z,158
2022-11-24T18:20:19.989Z,225
2022-11-24T18:35:20.071Z,158
2022-11-24T18:45:17.033Z,158
2022-11-24T18:50:16.981Z,158
2022-11-24T18:55:20.035Z,158
2022-11-24T19:05:20.135Z,158
2022-11-24T19:10:20.144Z,158
2022-11-24T19:20:20.130Z,158
2022-11-24T19:25:20.108Z,158
2022-11-24T19:30:20.020Z,158
2022-11-24T19:35:20.186Z,158
2022-11-24T19:40:17.107Z,225
2022-11-24T19:50:20.214Z,158
2022-11-24T19:55:20.211Z,158
2022-11-24T20:00:20.180Z,202
2022-11-24T20:05:20.134Z,202
2022-11-24T20:10:20.193Z,158
2022-11-24T20:15:20.297Z,202
2022-11-24T20:20:20.239Z,158
2022-11-24T20:40:20.267Z,158
2022-11-24T20:45:20.418Z,180
2022-11-24T20:50:20.496Z,158
2022-11-24T20:55:20.352Z,158
2022-11-24T21:00:20.284Z,158
2022-11-24T21:05:20.366Z,158
2022-11-24T21:10:20.439Z,158
2022-11-24T21:15:20.373Z,158
2022-11-24T21:35:20.529Z,135
